sensor_id;sensor_type;location;lat;lon;timestamp;pressure;altitude;pressure_sealevel;temperature;humidity
49178;BME280;35016;55.674;37.468;2023-04-30T00:02:20;99387.09;;;5.95;55.43
49178;BME280;35016;55.674;37.468;2023-04-30T00:04:47;99393.06;;;5.97;55.92
49178;BME280;35016;55.674;37.468;2023-04-30T00:07:14;99394.94;;;5.97;55.90
49178;BME280;35016;55.674;37.468;2023-04-30T00:09:41;99395.75;;;5.97;55.64
49178;BME280;35016;55.674;37.468;2023-04-30T00:12:08;99389.31;;;5.98;56.00
49178;BME280;35016;55.674;37.468;2023-04-30T00:14:35;99392.00;;;5.98;56.16
49178;BME280;35016;55.674;37.468;2023-04-30T00:17:02;99389.19;;;5.93;55.66
49178;BME280;35016;55.674;37.468;2023-04-30T00:19:29;99395.88;;;5.90;55.88
49178;BME280;35016;55.674;37.468;2023-04-30T00:21:57;99395.47;;;5.87;56.28
49178;BME280;35016;55.674;37.468;2023-04-30T00:24:26;99394.66;;;5.86;55.93
49178;BME280;35016;55.674;37.468;2023-04-30T00:26:53;99402.75;;;5.86;56.23
49178;BME280;35016;55.674;37.468;2023-04-30T00:29:20;99405.19;;;5.88;56.25
49178;BME280;35016;55.674;37.468;2023-04-30T00:31:47;99412.44;;;5.87;56.36
49178;BME280;35016;55.674;37.468;2023-04-30T00:34:15;99418.06;;;5.86;56.57
49178;BME280;35016;55.674;37.468;2023-04-30T00:36:42;99411.88;;;5.85;56.88
49178;BME280;35016;55.674;37.468;2023-04-30T00:39:09;99407.31;;;5.86;56.33
49178;BME280;35016;55.674;37.468;2023-04-30T00:41:36;99408.72;;;5.88;56.88
49178;BME280;35016;55.674;37.468;2023-04-30T00:44:03;99406.47;;;5.85;56.29
49178;BME280;35016;55.674;37.468;2023-04-30T00:46:30;99413.38;;;5.81;56.33
49178;BME280;35016;55.674;37.468;2023-04-30T00:48:58;99411.34;;;5.77;56.97
49178;BME280;35016;55.674;37.468;2023-04-30T00:51:28;99407.47;;;5.73;57.16
49178;BME280;35016;55.674;37.468;2023-04-30T00:53:55;99411.22;;;5.72;57.24
49178;BME280;35016;55.674;37.468;2023-04-30T00:56:22;99404.66;;;5.68;57.45
49178;BME280;35016;55.674;37.468;2023-04-30T00:58:49;99409.00;;;5.69;57.46
49178;BME280;35016;55.674;37.468;2023-04-30T01:01:20;99407.34;;;5.68;56.96
49178;BME280;35016;55.674;37.468;2023-04-30T01:03:47;99412.75;;;5.68;56.79
49178;BME280;35016;55.674;37.468;2023-04-30T01:06:14;99408.41;;;5.67;57.16
49178;BME280;35016;55.674;37.468;2023-04-30T01:08:42;99410.28;;;5.66;57.45
49178;BME280;35016;55.674;37.468;2023-04-30T01:11:31;99412.28;;;5.71;57.82
49178;BME280;35016;55.674;37.468;2023-04-30T01:14:12;99403.63;;;5.69;57.47
49178;BME280;35016;55.674;37.468;2023-04-30T01:17:05;99416.47;;;5.67;57.74
49178;BME280;35016;55.674;37.468;2023-04-30T01:19:39;99416.13;;;5.63;57.78
49178;BME280;35016;55.674;37.468;2023-04-30T01:22:13;99418.22;;;5.61;57.72
49178;BME280;35016;55.674;37.468;2023-04-30T01:30:33;99414.06;;;5.47;57.97
49178;BME280;35016;55.674;37.468;2023-04-30T01:33:01;99422.59;;;5.44;57.87
49178;BME280;35016;55.674;37.468;2023-04-30T01:40:56;99420.38;;;5.41;58.86
49178;BME280;35016;55.674;37.468;2023-04-30T01:43:41;99419.31;;;5.42;59.13
49178;BME280;35016;55.674;37.468;2023-04-30T01:46:27;99422.81;;;5.42;59.50
49178;BME280;35016;55.674;37.468;2023-04-30T01:49:11;99422.00;;;5.42;58.16
49178;BME280;35016;55.674;37.468;2023-04-30T01:51:43;99419.53;;;5.40;57.93
49178;BME280;35016;55.674;37.468;2023-04-30T01:56:52;99417.75;;;5.34;59.29
49178;BME280;35016;55.674;37.468;2023-04-30T01:59:24;99419.88;;;5.32;58.87
49178;BME280;35016;55.674;37.468;2023-04-30T02:01:54;99423.97;;;5.35;58.90
49178;BME280;35016;55.674;37.468;2023-04-30T02:04:22;99415.31;;;5.33;58.65
49178;BME280;35016;55.674;37.468;2023-04-30T02:06:49;99413.56;;;5.38;59.08
49178;BME280;35016;55.674;37.468;2023-04-30T02:09:16;99405.28;;;5.40;58.70
49178;BME280;35016;55.674;37.468;2023-04-30T02:11:43;99401.53;;;5.41;59.32
49178;BME280;35016;55.674;37.468;2023-04-30T02:14:10;99407.50;;;5.43;59.51
49178;BME280;35016;55.674;37.468;2023-04-30T02:16:57;99396.53;;;5.44;59.41
49178;BME280;35016;55.674;37.468;2023-04-30T02:19:24;99397.09;;;5.46;59.18
49178;BME280;35016;55.674;37.468;2023-04-30T02:21:52;99396.22;;;5.52;59.46
49178;BME280;35016;55.674;37.468;2023-04-30T02:24:19;99395.06;;;5.60;59.42
49178;BME280;35016;55.674;37.468;2023-04-30T02:26:47;99396.59;;;5.68;59.13
49178;BME280;35016;55.674;37.468;2023-04-30T02:29:14;99390.28;;;5.74;58.94
49178;BME280;35016;55.674;37.468;2023-04-30T02:31:42;99377.81;;;5.79;59.09
49178;BME280;35016;55.674;37.468;2023-04-30T02:34:09;99385.53;;;5.87;59.34
49178;BME280;35016;55.674;37.468;2023-04-30T02:36:37;99385.94;;;5.91;59.00
49178;BME280;35016;55.674;37.468;2023-04-30T02:39:04;99382.53;;;5.96;58.76
49178;BME280;35016;55.674;37.468;2023-04-30T02:41:31;99380.44;;;5.98;59.30
49178;BME280;35016;55.674;37.468;2023-04-30T02:43:58;99376.81;;;6.04;59.31
49178;BME280;35016;55.674;37.468;2023-04-30T02:46:26;99370.13;;;6.06;58.83
49178;BME280;35016;55.674;37.468;2023-04-30T02:48:53;99365.94;;;6.10;59.27
49178;BME280;35016;55.674;37.468;2023-04-30T02:51:20;99369.81;;;6.14;59.21
49178;BME280;35016;55.674;37.468;2023-04-30T02:53:47;99356.69;;;6.18;58.83
49178;BME280;35016;55.674;37.468;2023-04-30T02:56:15;99365.59;;;6.18;59.23
49178;BME280;35016;55.674;37.468;2023-04-30T02:58:42;99368.38;;;6.24;59.18
49178;BME280;35016;55.674;37.468;2023-04-30T03:01:09;99370.38;;;6.28;59.23
49178;BME280;35016;55.674;37.468;2023-04-30T03:03:36;99375.06;;;6.33;58.89
49178;BME280;35016;55.674;37.468;2023-04-30T03:06:03;99366.28;;;6.37;58.71
49178;BME280;35016;55.674;37.468;2023-04-30T03:08:30;99366.16;;;6.44;58.50
49178;BME280;35016;55.674;37.468;2023-04-30T03:10:58;99362.75;;;6.48;58.91
49178;BME280;35016;55.674;37.468;2023-04-30T03:13:25;99364.16;;;6.51;59.28
49178;BME280;35016;55.674;37.468;2023-04-30T03:15:59;99363.78;;;6.59;59.13
49178;BME280;35016;55.674;37.468;2023-04-30T03:18:27;99358.97;;;6.61;58.77
49178;BME280;35016;55.674;37.468;2023-04-30T03:20:55;99362.38;;;6.68;59.20
49178;BME280;35016;55.674;37.468;2023-04-30T03:23:22;99364.03;;;6.69;58.99
49178;BME280;35016;55.674;37.468;2023-04-30T03:25:50;99353.59;;;6.73;59.11
49178;BME280;35016;55.674;37.468;2023-04-30T03:28:17;99363.88;;;6.76;58.56
49178;BME280;35016;55.674;37.468;2023-04-30T03:30:44;99352.63;;;6.79;58.44
49178;BME280;35016;55.674;37.468;2023-04-30T03:33:11;99347.56;;;6.82;59.10
49178;BME280;35016;55.674;37.468;2023-04-30T03:35:39;99339.84;;;6.86;58.50
49178;BME280;35016;55.674;37.468;2023-04-30T03:38:06;99345.31;;;6.91;59.11
49178;BME280;35016;55.674;37.468;2023-04-30T03:40:33;99343.00;;;6.95;58.68
49178;BME280;35016;55.674;37.468;2023-04-30T03:43:00;99339.56;;;6.99;58.96
49178;BME280;35016;55.674;37.468;2023-04-30T03:45:27;99335.09;;;7.05;58.54
49178;BME280;35016;55.674;37.468;2023-04-30T03:47:54;99336.81;;;7.11;59.00
49178;BME280;35016;55.674;37.468;2023-04-30T03:50:22;99331.53;;;7.16;58.44
49178;BME280;35016;55.674;37.468;2023-04-30T03:52:49;99336.75;;;7.23;58.57
49178;BME280;35016;55.674;37.468;2023-04-30T03:55:16;99342.03;;;7.29;58.58
49178;BME280;35016;55.674;37.468;2023-04-30T03:57:43;99330.03;;;7.37;58.71
49178;BME280;35016;55.674;37.468;2023-04-30T04:00:11;99328.31;;;7.47;58.09
49178;BME280;35016;55.674;37.468;2023-04-30T04:02:42;99335.53;;;7.59;58.41
49178;BME280;35016;55.674;37.468;2023-04-30T04:05:10;99335.94;;;7.67;58.07
49178;BME280;35016;55.674;37.468;2023-04-30T04:07:37;99331.53;;;7.78;58.00
49178;BME280;35016;55.674;37.468;2023-04-30T04:10:04;99318.72;;;7.85;58.23
49178;BME280;35016;55.674;37.468;2023-04-30T04:12:31;99333.75;;;7.98;57.62
49178;BME280;35016;55.674;37.468;2023-04-30T04:14:58;99324.97;;;8.07;57.58
49178;BME280;35016;55.674;37.468;2023-04-30T04:17:26;99324.00;;;8.14;57.70
49178;BME280;35016;55.674;37.468;2023-04-30T04:19:53;99322.19;;;8.19;57.59
49178;BME280;35016;55.674;37.468;2023-04-30T04:22:21;99325.28;;;8.28;57.23
49178;BME280;35016;55.674;37.468;2023-04-30T04:24:48;99321.34;;;8.35;57.26
49178;BME280;35016;55.674;37.468;2023-04-30T04:27:19;99323.06;;;8.42;57.15
49178;BME280;35016;55.674;37.468;2023-04-30T04:29:46;99319.38;;;8.48;57.20
49178;BME280;35016;55.674;37.468;2023-04-30T04:32:13;99316.66;;;8.48;56.86
49178;BME280;35016;55.674;37.468;2023-04-30T04:34:41;99317.59;;;8.58;57.13
49178;BME280;35016;55.674;37.468;2023-04-30T04:37:11;99311.75;;;8.66;56.89
49178;BME280;35016;55.674;37.468;2023-04-30T04:39:38;99315.94;;;8.74;56.84
49178;BME280;35016;55.674;37.468;2023-04-30T04:42:05;99314.09;;;8.80;56.71
49178;BME280;35016;55.674;37.468;2023-04-30T04:44:34;99307.38;;;8.82;56.63
49178;BME280;35016;55.674;37.468;2023-04-30T04:47:02;99303.66;;;8.88;56.65
49178;BME280;35016;55.674;37.468;2023-04-30T04:49:30;99315.06;;;8.95;56.51
49178;BME280;35016;55.674;37.468;2023-04-30T04:51:57;99306.28;;;9.05;56.39
49178;BME280;35016;55.674;37.468;2023-04-30T04:54:24;99310.16;;;9.14;56.55
49178;BME280;35016;55.674;37.468;2023-04-30T04:56:51;99308.63;;;9.23;56.21
49178;BME280;35016;55.674;37.468;2023-04-30T04:59:18;99310.38;;;9.35;56.35
49178;BME280;35016;55.674;37.468;2023-04-30T05:01:47;99307.50;;;9.46;56.03
49178;BME280;35016;55.674;37.468;2023-04-30T05:04:14;99315.47;;;9.58;56.08
49178;BME280;35016;55.674;37.468;2023-04-30T05:06:43;99316.09;;;9.70;55.81
49178;BME280;35016;55.674;37.468;2023-04-30T05:09:11;99307.78;;;9.82;55.69
49178;BME280;35016;55.674;37.468;2023-04-30T05:11:39;99307.09;;;9.97;55.71
49178;BME280;35016;55.674;37.468;2023-04-30T05:14:07;99310.13;;;10.05;54.85
49178;BME280;35016;55.674;37.468;2023-04-30T05:16:34;99308.59;;;10.14;54.89
49178;BME280;35016;55.674;37.468;2023-04-30T05:19:01;99304.03;;;10.20;55.15
49178;BME280;35016;55.674;37.468;2023-04-30T05:21:28;99298.09;;;10.23;54.41
49178;BME280;35016;55.674;37.468;2023-04-30T05:23:55;99300.59;;;10.35;54.42
49178;BME280;35016;55.674;37.468;2023-04-30T05:26:22;99304.41;;;10.39;53.93
49178;BME280;35016;55.674;37.468;2023-04-30T05:28:50;99301.44;;;10.40;53.58
49178;BME280;35016;55.674;37.468;2023-04-30T05:31:18;99300.38;;;10.41;53.72
49178;BME280;35016;55.674;37.468;2023-04-30T05:33:47;99303.09;;;10.41;53.55
49178;BME280;35016;55.674;37.468;2023-04-30T05:36:14;99312.34;;;10.45;53.53
49178;BME280;35016;55.674;37.468;2023-04-30T05:38:41;99298.50;;;10.47;53.89
49178;BME280;35016;55.674;37.468;2023-04-30T05:41:11;99305.84;;;10.51;53.21
49178;BME280;35016;55.674;37.468;2023-04-30T05:43:38;99299.91;;;10.54;53.06
49178;BME280;35016;55.674;37.468;2023-04-30T05:46:05;99298.56;;;10.57;53.17
49178;BME280;35016;55.674;37.468;2023-04-30T05:48:32;99299.63;;;10.56;53.11
49178;BME280;35016;55.674;37.468;2023-04-30T05:51:00;99297.22;;;10.60;53.00
49178;BME280;35016;55.674;37.468;2023-04-30T05:53:27;99302.38;;;10.66;52.87
49178;BME280;35016;55.674;37.468;2023-04-30T05:55:54;99295.13;;;10.77;52.31
49178;BME280;35016;55.674;37.468;2023-04-30T05:58:21;99301.66;;;10.86;52.52
49178;BME280;35016;55.674;37.468;2023-04-30T06:00:49;99304.13;;;10.93;52.72
49178;BME280;35016;55.674;37.468;2023-04-30T06:03:18;99307.97;;;11.02;52.28
49178;BME280;35016;55.674;37.468;2023-04-30T06:05:45;99312.31;;;11.08;52.29
49178;BME280;35016;55.674;37.468;2023-04-30T06:08:13;99317.22;;;11.16;52.07
49178;BME280;35016;55.674;37.468;2023-04-30T06:10:41;99324.56;;;11.26;52.17
49178;BME280;35016;55.674;37.468;2023-04-30T06:13:08;99321.06;;;11.30;52.38
49178;BME280;35016;55.674;37.468;2023-04-30T06:15:35;99312.91;;;11.30;51.99
49178;BME280;35016;55.674;37.468;2023-04-30T06:18:02;99317.28;;;11.36;52.38
49178;BME280;35016;55.674;37.468;2023-04-30T06:20:29;99325.97;;;11.43;51.28
49178;BME280;35016;55.674;37.468;2023-04-30T06:22:56;99324.34;;;11.53;51.30
49178;BME280;35016;55.674;37.468;2023-04-30T06:25:23;99321.09;;;11.66;50.84
49178;BME280;35016;55.674;37.468;2023-04-30T06:27:50;99322.50;;;11.78;50.75
49178;BME280;35016;55.674;37.468;2023-04-30T06:30:19;99318.97;;;11.88;50.57
49178;BME280;35016;55.674;37.468;2023-04-30T06:32:46;99316.53;;;11.97;50.37
49178;BME280;35016;55.674;37.468;2023-04-30T06:35:14;99319.22;;;12.07;50.12
49178;BME280;35016;55.674;37.468;2023-04-30T06:37:41;99316.78;;;12.16;49.63
49178;BME280;35016;55.674;37.468;2023-04-30T06:40:08;99306.97;;;12.20;49.90
49178;BME280;35016;55.674;37.468;2023-04-30T06:42:35;99317.56;;;12.31;48.93
49178;BME280;35016;55.674;37.468;2023-04-30T06:45:02;99310.72;;;12.39;48.92
49178;BME280;35016;55.674;37.468;2023-04-30T06:47:32;99306.38;;;12.48;48.90
49178;BME280;35016;55.674;37.468;2023-04-30T06:50:04;99308.25;;;12.53;48.38
49178;BME280;35016;55.674;37.468;2023-04-30T06:52:31;99313.69;;;12.58;48.57
49178;BME280;35016;55.674;37.468;2023-04-30T06:54:58;99301.16;;;12.62;48.14
49178;BME280;35016;55.674;37.468;2023-04-30T06:57:26;99295.13;;;12.70;47.50
49178;BME280;35016;55.674;37.468;2023-04-30T06:59:53;99277.97;;;12.80;47.24
49178;BME280;35016;55.674;37.468;2023-04-30T07:02:21;99285.56;;;12.83;46.63
49178;BME280;35016;55.674;37.468;2023-04-30T07:04:48;99276.84;;;12.86;46.76
49178;BME280;35016;55.674;37.468;2023-04-30T07:07:15;99275.44;;;12.93;46.09
49178;BME280;35016;55.674;37.468;2023-04-30T07:09:42;99284.38;;;12.99;45.50
49178;BME280;35016;55.674;37.468;2023-04-30T07:12:09;99278.13;;;13.03;45.40
49178;BME280;35016;55.674;37.468;2023-04-30T07:14:39;99257.69;;;13.06;44.92
49178;BME280;35016;55.674;37.468;2023-04-30T07:17:06;99262.00;;;13.12;44.95
49178;BME280;35016;55.674;37.468;2023-04-30T07:19:33;99256.03;;;13.10;44.23
49178;BME280;35016;55.674;37.468;2023-04-30T07:22:00;99257.66;;;13.11;44.12
49178;BME280;35016;55.674;37.468;2023-04-30T07:24:27;99260.63;;;13.15;44.11
49178;BME280;35016;55.674;37.468;2023-04-30T07:26:55;99252.69;;;13.23;43.86
49178;BME280;35016;55.674;37.468;2023-04-30T07:29:22;99235.78;;;13.26;43.64
49178;BME280;35016;55.674;37.468;2023-04-30T07:31:49;99245.28;;;13.29;43.27
49178;BME280;35016;55.674;37.468;2023-04-30T07:34:17;99248.84;;;13.29;43.05
49178;BME280;35016;55.674;37.468;2023-04-30T07:36:44;99242.56;;;13.34;43.06
49178;BME280;35016;55.674;37.468;2023-04-30T07:39:11;99233.00;;;13.37;42.87
49178;BME280;35016;55.674;37.468;2023-04-30T07:41:38;99228.63;;;13.41;42.62
49178;BME280;35016;55.674;37.468;2023-04-30T07:44:05;99220.91;;;13.48;42.36
49178;BME280;35016;55.674;37.468;2023-04-30T07:46:32;99216.75;;;13.60;42.44
49178;BME280;35016;55.674;37.468;2023-04-30T07:48:59;99207.13;;;13.68;42.10
49178;BME280;35016;55.674;37.468;2023-04-30T07:51:26;99204.41;;;13.68;42.29
49178;BME280;35016;55.674;37.468;2023-04-30T07:53:54;99192.94;;;13.71;41.81
49178;BME280;35016;55.674;37.468;2023-04-30T07:56:21;99181.38;;;13.79;41.70
49178;BME280;35016;55.674;37.468;2023-04-30T07:58:48;99175.56;;;13.91;41.41
49178;BME280;35016;55.674;37.468;2023-04-30T08:01:15;99175.50;;;13.96;41.28
49178;BME280;35016;55.674;37.468;2023-04-30T08:03:42;99168.72;;;13.93;40.99
49178;BME280;35016;55.674;37.468;2023-04-30T08:06:09;99166.28;;;13.92;40.75
49178;BME280;35016;55.674;37.468;2023-04-30T08:08:36;99161.69;;;13.87;40.64
49178;BME280;35016;55.674;37.468;2023-04-30T08:11:05;99153.78;;;13.86;40.24
49178;BME280;35016;55.674;37.468;2023-04-30T08:13:32;99152.97;;;13.85;40.23
49178;BME280;35016;55.674;37.468;2023-04-30T08:15:59;99136.88;;;13.89;40.27
49178;BME280;35016;55.674;37.468;2023-04-30T08:18:26;99129.22;;;13.91;40.29
49178;BME280;35016;55.674;37.468;2023-04-30T08:20:53;99128.63;;;13.94;40.13
49178;BME280;35016;55.674;37.468;2023-04-30T08:23:20;99120.25;;;13.85;39.98
49178;BME280;35016;55.674;37.468;2023-04-30T08:25:47;99128.97;;;13.87;40.09
49178;BME280;35016;55.674;37.468;2023-04-30T08:28:14;99118.41;;;13.81;39.98
49178;BME280;35016;55.674;37.468;2023-04-30T08:30:42;99123.34;;;13.79;39.94
49178;BME280;35016;55.674;37.468;2023-04-30T08:33:09;99110.38;;;13.71;39.73
49178;BME280;35016;55.674;37.468;2023-04-30T08:35:37;99105.25;;;13.64;40.06
49178;BME280;35016;55.674;37.468;2023-04-30T08:38:04;99093.03;;;13.61;39.85
49178;BME280;35016;55.674;37.468;2023-04-30T08:40:34;99106.16;;;13.54;39.40
49178;BME280;35016;55.674;37.468;2023-04-30T08:43:17;99104.03;;;13.51;40.08
49178;BME280;35016;55.674;37.468;2023-04-30T08:45:46;99086.06;;;13.50;40.03
49178;BME280;35016;55.674;37.468;2023-04-30T08:48:14;99090.50;;;13.41;39.93
49178;BME280;35016;55.674;37.468;2023-04-30T08:50:42;99102.41;;;13.21;40.06
49178;BME280;35016;55.674;37.468;2023-04-30T08:53:10;99094.31;;;13.11;40.06
49178;BME280;35016;55.674;37.468;2023-04-30T08:55:39;99093.25;;;13.07;40.27
49178;BME280;35016;55.674;37.468;2023-04-30T08:58:07;99078.88;;;13.01;40.12
49178;BME280;35016;55.674;37.468;2023-04-30T09:00:37;99082.16;;;12.98;40.01
49178;BME280;35016;55.674;37.468;2023-04-30T09:03:06;99074.09;;;12.88;40.44
49178;BME280;35016;55.674;37.468;2023-04-30T09:05:36;99073.31;;;12.83;40.79
49178;BME280;35016;55.674;37.468;2023-04-30T09:08:05;99056.19;;;12.82;40.58
49178;BME280;35016;55.674;37.468;2023-04-30T09:10:34;99050.72;;;12.82;40.47
49178;BME280;35016;55.674;37.468;2023-04-30T09:15:30;99050.72;;;12.82;40.53
49178;BME280;35016;55.674;37.468;2023-04-30T09:18:17;99053.34;;;12.92;40.19
49178;BME280;35016;55.674;37.468;2023-04-30T09:21:00;99041.59;;;12.97;40.24
49178;BME280;35016;55.674;37.468;2023-04-30T09:23:29;99042.41;;;13.02;40.63
49178;BME280;35016;55.674;37.468;2023-04-30T09:25:56;99033.66;;;13.06;40.56
49178;BME280;35016;55.674;37.468;2023-04-30T09:28:23;99035.03;;;13.03;40.30
49178;BME280;35016;55.674;37.468;2023-04-30T09:30:52;99029.06;;;13.01;40.66
49178;BME280;35016;55.674;37.468;2023-04-30T09:33:20;99013.06;;;12.94;40.69
49178;BME280;35016;55.674;37.468;2023-04-30T09:35:47;99006.22;;;12.97;40.77
49178;BME280;35016;55.674;37.468;2023-04-30T09:38:44;99004.53;;;13.06;40.65
49178;BME280;35016;55.674;37.468;2023-04-30T09:41:21;99000.06;;;13.15;40.53
49178;BME280;35016;55.674;37.468;2023-04-30T09:43:49;99002.25;;;13.18;40.61
49178;BME280;35016;55.674;37.468;2023-04-30T09:46:18;99005.50;;;13.15;40.79
49178;BME280;35016;55.674;37.468;2023-04-30T09:48:48;98996.81;;;13.13;41.12
49178;BME280;35016;55.674;37.468;2023-04-30T09:51:21;98988.44;;;13.10;40.74
49178;BME280;35016;55.674;37.468;2023-04-30T09:53:49;98995.56;;;13.00;40.97
49178;BME280;35016;55.674;37.468;2023-04-30T09:56:23;98976.28;;;12.97;40.36
49178;BME280;35016;55.674;37.468;2023-04-30T09:58:54;98975.25;;;12.93;41.24
49178;BME280;35016;55.674;37.468;2023-04-30T10:01:25;98976.28;;;12.97;40.70
49178;BME280;35016;55.674;37.468;2023-04-30T10:03:56;98979.53;;;12.99;40.88
49178;BME280;35016;55.674;37.468;2023-04-30T10:06:24;98989.94;;;12.92;40.80
49178;BME280;35016;55.674;37.468;2023-04-30T10:08:56;99006.91;;;12.84;40.45
49178;BME280;35016;55.674;37.468;2023-04-30T10:11:27;98990.88;;;12.82;40.56
49178;BME280;35016;55.674;37.468;2023-04-30T10:14:02;98990.59;;;12.84;40.61
49178;BME280;35016;55.674;37.468;2023-04-30T10:16:58;98983.75;;;12.86;40.49
49178;BME280;35016;55.674;37.468;2023-04-30T10:19:30;98994.13;;;12.84;40.81
49178;BME280;35016;55.674;37.468;2023-04-30T10:22:00;98986.47;;;12.86;41.06
49178;BME280;35016;55.674;37.468;2023-04-30T10:24:28;98995.16;;;12.88;40.73
49178;BME280;35016;55.674;37.468;2023-04-30T10:26:56;98991.88;;;12.91;40.69
49178;BME280;35016;55.674;37.468;2023-04-30T10:29:24;98993.72;;;12.96;40.59
49178;BME280;35016;55.674;37.468;2023-04-30T10:31:51;98980.91;;;13.01;40.50
49178;BME280;35016;55.674;37.468;2023-04-30T10:34:59;98991.16;;;13.10;40.23
49178;BME280;35016;55.674;37.468;2023-04-30T10:37:39;98982.47;;;13.08;40.54
49178;BME280;35016;55.674;37.468;2023-04-30T10:40:10;98977.25;;;13.11;40.87
49178;BME280;35016;55.674;37.468;2023-04-30T10:42:44;98979.66;;;13.18;40.44
49178;BME280;35016;55.674;37.468;2023-04-30T10:45:11;98976.66;;;13.14;40.56
49178;BME280;35016;55.674;37.468;2023-04-30T10:47:41;98985.34;;;13.16;40.20
49178;BME280;35016;55.674;37.468;2023-04-30T10:50:11;98982.63;;;13.16;40.36
49178;BME280;35016;55.674;37.468;2023-04-30T10:52:39;98977.75;;;13.13;40.24
49178;BME280;35016;55.674;37.468;2023-04-30T10:55:08;98971.50;;;13.13;40.49
49178;BME280;35016;55.674;37.468;2023-04-30T10:57:44;98981.50;;;13.22;39.73
49178;BME280;35016;55.674;37.468;2023-04-30T11:00:18;98983.03;;;13.33;40.01
49178;BME280;35016;55.674;37.468;2023-04-30T11:02:46;98989.75;;;13.41;39.74
49178;BME280;35016;55.674;37.468;2023-04-30T11:05:15;98994.53;;;13.49;40.04
49178;BME280;35016;55.674;37.468;2023-04-30T11:07:51;98988.09;;;13.64;39.38
49178;BME280;35016;55.674;37.468;2023-04-30T11:10:24;98981.03;;;13.82;39.47
49178;BME280;35016;55.674;37.468;2023-04-30T11:12:54;98986.28;;;13.97;39.29
49178;BME280;35016;55.674;37.468;2023-04-30T11:15:26;98982.31;;;14.08;38.82
49178;BME280;35016;55.674;37.468;2023-04-30T11:17:57;98958.50;;;14.14;38.49
49178;BME280;35016;55.674;37.468;2023-04-30T11:20:27;98953.28;;;14.17;38.74
49178;BME280;35016;55.674;37.468;2023-04-30T11:25:40;98955.84;;;14.27;38.20
49178;BME280;35016;55.674;37.468;2023-04-30T11:28:16;98940.94;;;14.39;38.11
49178;BME280;35016;55.674;37.468;2023-04-30T11:30:54;98949.94;;;14.58;37.49
49178;BME280;35016;55.674;37.468;2023-04-30T11:33:24;98944.47;;;14.72;38.18
49178;BME280;35016;55.674;37.468;2023-04-30T11:35:52;98923.00;;;14.84;37.92
49178;BME280;35016;55.674;37.468;2023-04-30T11:38:22;98923.81;;;14.84;37.69
49178;BME280;35016;55.674;37.468;2023-04-30T11:40:52;98927.94;;;14.82;37.86
49178;BME280;35016;55.674;37.468;2023-04-30T11:43:30;98907.41;;;14.84;37.31
49178;BME280;35016;55.674;37.468;2023-04-30T11:46:09;98910.25;;;14.93;37.25
49178;BME280;35016;55.674;37.468;2023-04-30T11:48:39;98905.50;;;14.85;38.06
49178;BME280;35016;55.674;37.468;2023-04-30T11:51:20;98905.91;;;14.78;37.39
49178;BME280;35016;55.674;37.468;2023-04-30T11:53:50;98906.06;;;14.68;37.79
49178;BME280;35016;55.674;37.468;2023-04-30T11:56:21;98906.25;;;14.58;37.41
49178;BME280;35016;55.674;37.468;2023-04-30T11:58:52;98913.75;;;14.52;37.50
49178;BME280;35016;55.674;37.468;2023-04-30T12:01:26;98902.22;;;14.55;37.77
49178;BME280;35016;55.674;37.468;2023-04-30T12:03:55;98901.63;;;14.59;37.86
49178;BME280;35016;55.674;37.468;2023-04-30T12:06:27;98897.06;;;14.68;37.48
49178;BME280;35016;55.674;37.468;2023-04-30T12:08:56;98897.97;;;14.63;37.58
49178;BME280;35016;55.674;37.468;2023-04-30T12:11:26;98878.47;;;14.56;37.58
49178;BME280;35016;55.674;37.468;2023-04-30T12:13:55;98884.03;;;14.51;37.81
49178;BME280;35016;55.674;37.468;2023-04-30T12:16:23;98889.03;;;14.44;37.70
49178;BME280;35016;55.674;37.468;2023-04-30T12:18:51;98888.38;;;14.33;37.98
49178;BME280;35016;55.674;37.468;2023-04-30T12:21:20;98889.97;;;14.20;37.80
49178;BME280;35016;55.674;37.468;2023-04-30T12:23:49;98881.81;;;14.02;37.84
49178;BME280;35016;55.674;37.468;2023-04-30T12:26:16;98881.47;;;13.89;38.15
49178;BME280;35016;55.674;37.468;2023-04-30T12:28:46;98879.03;;;13.69;38.35
49178;BME280;35016;55.674;37.468;2023-04-30T12:31:13;98889.91;;;13.50;38.71
49178;BME280;35016;55.674;37.468;2023-04-30T12:33:40;98892.06;;;13.35;38.91
49178;BME280;35016;55.674;37.468;2023-04-30T12:36:12;98897.31;;;13.26;39.09
49178;BME280;35016;55.674;37.468;2023-04-30T12:38:42;98887.94;;;13.13;39.01
49178;BME280;35016;55.674;37.468;2023-04-30T12:41:12;98890.72;;;13.08;39.14
49178;BME280;35016;55.674;37.468;2023-04-30T12:43:41;98889.97;;;13.02;39.35
49178;BME280;35016;55.674;37.468;2023-04-30T12:46:08;98896.25;;;12.98;39.35
49178;BME280;35016;55.674;37.468;2023-04-30T12:48:44;98896.03;;;12.94;39.48
49178;BME280;35016;55.674;37.468;2023-04-30T12:51:11;98888.97;;;12.93;39.69
49178;BME280;35016;55.674;37.468;2023-04-30T12:53:45;98885.50;;;12.88;39.32
49178;BME280;35016;55.674;37.468;2023-04-30T12:56:16;98884.75;;;12.82;39.63
49178;BME280;35016;55.674;37.468;2023-04-30T12:58:44;98877.69;;;12.81;39.48
49178;BME280;35016;55.674;37.468;2023-04-30T13:01:17;98876.31;;;12.84;39.89
49178;BME280;35016;55.674;37.468;2023-04-30T13:03:45;98876.31;;;12.84;39.94
49178;BME280;35016;55.674;37.468;2023-04-30T13:06:12;98867.56;;;12.87;39.73
49178;BME280;35016;55.674;37.468;2023-04-30T13:08:40;98871.59;;;12.89;39.76
49178;BME280;35016;55.674;37.468;2023-04-30T13:11:23;98867.25;;;12.88;40.13
49178;BME280;35016;55.674;37.468;2023-04-30T13:13:52;98858.50;;;12.91;39.76
49178;BME280;35016;55.674;37.468;2023-04-30T13:16:22;98857.47;;;12.87;39.85
49178;BME280;35016;55.674;37.468;2023-04-30T13:18:53;98855.63;;;12.83;40.10
49178;BME280;35016;55.674;37.468;2023-04-30T13:21:21;98859.44;;;12.82;40.30
49178;BME280;35016;55.674;37.468;2023-04-30T13:23:48;98854.59;;;12.79;40.01